sensor_id;sensor_type;location;lat;lon;timestamp;P1;durP1;ratioP1;P2;durP2;ratioP2
45970;SDS011;31681;48.982;8.394;2023-04-15T00:00:28;9.30;;;3.97;;
45970;SDS011;31681;48.982;8.394;2023-04-15T00:02:54;6.80;;;3.97;;
45970;SDS011;31681;48.982;8.394;2023-04-15T00:05:19;5.77;;;3.57;;
45970;SDS011;31681;48.982;8.394;2023-04-15T00:07:45;7.73;;;3.77;;
45970;SDS011;31681;48.982;8.394;2023-04-15T00:10:11;10.13;;;3.73;;
45970;SDS011;31681;48.982;8.394;2023-04-15T00:12:36;10.13;;;3.70;;
45970;SDS011;31681;48.982;8.394;2023-04-15T00:15:02;4.03;;;2.90;;
45970;SDS011;31681;48.982;8.394;2023-04-15T00:17:28;7.00;;;2.93;;
45970;SDS011;31681;48.982;8.394;2023-04-15T00:19:53;4.17;;;2.97;;
45970;SDS011;31681;48.982;8.394;2023-04-15T00:22:19;3.03;;;2.27;;
45970;SDS011;31681;48.982;8.394;2023-04-15T00:24:44;5.60;;;2.80;;
45970;SDS011;31681;48.982;8.394;2023-04-15T00:27:10;2.87;;;2.53;;
45970;SDS011;31681;48.982;8.394;2023-04-15T00:29:35;4.03;;;2.53;;
45970;SDS011;31681;48.982;8.394;2023-04-15T00:32:01;7.73;;;2.70;;
45970;SDS011;31681;48.982;8.394;2023-04-15T00:34:26;5.93;;;2.37;;
45970;SDS011;31681;48.982;8.394;2023-04-15T00:36:53;4.63;;;2.57;;
45970;SDS011;31681;48.982;8.394;2023-04-15T00:39:18;4.90;;;3.20;;
45970;SDS011;31681;48.982;8.394;2023-04-15T00:41:44;8.33;;;2.97;;
45970;SDS011;31681;48.982;8.394;2023-04-15T00:44:11;4.90;;;2.90;;
45970;SDS011;31681;48.982;8.394;2023-04-15T00:46:36;4.83;;;2.97;;
45970;SDS011;31681;48.982;8.394;2023-04-15T00:49:03;4.60;;;2.80;;
45970;SDS011;31681;48.982;8.394;2023-04-15T00:51:29;6.97;;;2.60;;
45970;SDS011;31681;48.982;8.394;2023-04-15T00:53:57;5.00;;;3.13;;
45970;SDS011;31681;48.982;8.394;2023-04-15T00:56:23;6.97;;;2.60;;
45970;SDS011;31681;48.982;8.394;2023-04-15T00:58:50;4.97;;;2.50;;
45970;SDS011;31681;48.982;8.394;2023-04-15T01:01:16;5.83;;;2.83;;
45970;SDS011;31681;48.982;8.394;2023-04-15T01:03:42;6.37;;;2.60;;
45970;SDS011;31681;48.982;8.394;2023-04-15T01:06:08;5.33;;;2.87;;
45970;SDS011;31681;48.982;8.394;2023-04-15T01:08:34;9.63;;;2.93;;
45970;SDS011;31681;48.982;8.394;2023-04-15T01:11:00;3.20;;;2.43;;
45970;SDS011;31681;48.982;8.394;2023-04-15T01:13:27;3.97;;;2.23;;
45970;SDS011;31681;48.982;8.394;2023-04-15T01:15:53;3.50;;;2.43;;
45970;SDS011;31681;48.982;8.394;2023-04-15T01:18:20;4.93;;;2.87;;
45970;SDS011;31681;48.982;8.394;2023-04-15T01:20:46;4.03;;;2.50;;
45970;SDS011;31681;48.982;8.394;2023-04-15T01:23:11;4.23;;;2.87;;
45970;SDS011;31681;48.982;8.394;2023-04-15T01:25:37;4.43;;;2.43;;
45970;SDS011;31681;48.982;8.394;2023-04-15T01:28:03;4.97;;;2.40;;
45970;SDS011;31681;48.982;8.394;2023-04-15T01:30:33;4.70;;;2.10;;
45970;SDS011;31681;48.982;8.394;2023-04-15T01:32:58;5.87;;;2.60;;
45970;SDS011;31681;48.982;8.394;2023-04-15T01:35:24;6.17;;;2.40;;
45970;SDS011;31681;48.982;8.394;2023-04-15T01:37:50;4.10;;;2.30;;
45970;SDS011;31681;48.982;8.394;2023-04-15T01:40:16;3.63;;;2.50;;
45970;SDS011;31681;48.982;8.394;2023-04-15T01:42:41;5.80;;;2.73;;
45970;SDS011;31681;48.982;8.394;2023-04-15T01:45:07;5.73;;;2.77;;
45970;SDS011;31681;48.982;8.394;2023-04-15T01:47:36;6.03;;;2.80;;
45970;SDS011;31681;48.982;8.394;2023-04-15T01:50:01;7.63;;;3.10;;
45970;SDS011;31681;48.982;8.394;2023-04-15T01:52:27;5.47;;;3.13;;
45970;SDS011;31681;48.982;8.394;2023-04-15T01:54:52;6.27;;;3.23;;
45970;SDS011;31681;48.982;8.394;2023-04-15T01:57:17;7.57;;;3.57;;
45970;SDS011;31681;48.982;8.394;2023-04-15T01:59:43;7.20;;;4.00;;
45970;SDS011;31681;48.982;8.394;2023-04-15T02:02:09;8.00;;;3.67;;
45970;SDS011;31681;48.982;8.394;2023-04-15T02:04:34;8.33;;;4.30;;
45970;SDS011;31681;48.982;8.394;2023-04-15T02:07:00;9.00;;;4.10;;
45970;SDS011;31681;48.982;8.394;2023-04-15T02:09:25;5.70;;;3.43;;
45970;SDS011;31681;48.982;8.394;2023-04-15T02:11:51;5.67;;;3.30;;
45970;SDS011;31681;48.982;8.394;2023-04-15T02:14:17;5.90;;;3.27;;
45970;SDS011;31681;48.982;8.394;2023-04-15T02:16:43;6.90;;;3.33;;
45970;SDS011;31681;48.982;8.394;2023-04-15T02:19:08;6.93;;;2.93;;
45970;SDS011;31681;48.982;8.394;2023-04-15T02:21:36;7.07;;;3.20;;
45970;SDS011;31681;48.982;8.394;2023-04-15T02:24:01;8.37;;;3.43;;
45970;SDS011;31681;48.982;8.394;2023-04-15T02:26:27;5.10;;;3.60;;
45970;SDS011;31681;48.982;8.394;2023-04-15T02:28:53;6.10;;;3.50;;
45970;SDS011;31681;48.982;8.394;2023-04-15T02:31:18;5.57;;;3.30;;
45970;SDS011;31681;48.982;8.394;2023-04-15T02:33:45;8.33;;;3.50;;
45970;SDS011;31681;48.982;8.394;2023-04-15T02:36:10;3.70;;;2.80;;
45970;SDS011;31681;48.982;8.394;2023-04-15T02:38:36;6.30;;;3.10;;
45970;SDS011;31681;48.982;8.394;2023-04-15T02:41:02;5.70;;;3.20;;
45970;SDS011;31681;48.982;8.394;2023-04-15T02:43:28;6.80;;;3.20;;
45970;SDS011;31681;48.982;8.394;2023-04-15T02:45:53;8.70;;;3.43;;
45970;SDS011;31681;48.982;8.394;2023-04-15T02:48:19;6.80;;;2.80;;
45970;SDS011;31681;48.982;8.394;2023-04-15T02:50:45;6.43;;;2.67;;
45970;SDS011;31681;48.982;8.394;2023-04-15T02:53:12;6.40;;;3.33;;
45970;SDS011;31681;48.982;8.394;2023-04-15T02:55:41;6.73;;;2.90;;
45970;SDS011;31681;48.982;8.394;2023-04-15T02:58:07;3.80;;;2.87;;
45970;SDS011;31681;48.982;8.394;2023-04-15T03:00:32;5.13;;;2.50;;
45970;SDS011;31681;48.982;8.394;2023-04-15T03:03:00;4.60;;;2.70;;
45970;SDS011;31681;48.982;8.394;2023-04-15T03:05:26;3.37;;;2.30;;
45970;SDS011;31681;48.982;8.394;2023-04-15T03:07:51;4.93;;;2.60;;
45970;SDS011;31681;48.982;8.394;2023-04-15T03:10:17;3.83;;;2.27;;
45970;SDS011;31681;48.982;8.394;2023-04-15T03:12:44;7.27;;;2.67;;
45970;SDS011;31681;48.982;8.394;2023-04-15T03:15:15;7.43;;;2.57;;
45970;SDS011;31681;48.982;8.394;2023-04-15T03:17:43;4.70;;;2.50;;
45970;SDS011;31681;48.982;8.394;2023-04-15T03:20:09;4.53;;;2.60;;
45970;SDS011;31681;48.982;8.394;2023-04-15T03:22:35;5.73;;;2.80;;
45970;SDS011;31681;48.982;8.394;2023-04-15T03:25:01;4.60;;;2.97;;
45970;SDS011;31681;48.982;8.394;2023-04-15T03:27:27;3.60;;;2.50;;
45970;SDS011;31681;48.982;8.394;2023-04-15T03:29:55;3.47;;;2.60;;
45970;SDS011;31681;48.982;8.394;2023-04-15T03:32:23;7.37;;;2.73;;
45970;SDS011;31681;48.982;8.394;2023-04-15T03:34:48;4.00;;;2.50;;
45970;SDS011;31681;48.982;8.394;2023-04-15T03:37:14;6.97;;;3.00;;
45970;SDS011;31681;48.982;8.394;2023-04-15T03:39:39;4.17;;;2.67;;
45970;SDS011;31681;48.982;8.394;2023-04-15T03:42:04;4.30;;;2.60;;
45970;SDS011;31681;48.982;8.394;2023-04-15T03:44:30;4.10;;;2.23;;
45970;SDS011;31681;48.982;8.394;2023-04-15T03:46:56;4.57;;;2.50;;
45970;SDS011;31681;48.982;8.394;2023-04-15T03:49:22;6.10;;;1.97;;
45970;SDS011;31681;48.982;8.394;2023-04-15T03:51:48;2.97;;;2.20;;
45970;SDS011;31681;48.982;8.394;2023-04-15T03:54:13;6.20;;;2.23;;
45970;SDS011;31681;48.982;8.394;2023-04-15T03:56:39;3.57;;;2.13;;
45970;SDS011;31681;48.982;8.394;2023-04-15T03:59:04;5.60;;;2.47;;
45970;SDS011;31681;48.982;8.394;2023-04-15T04:01:30;7.50;;;2.13;;
45970;SDS011;31681;48.982;8.394;2023-04-15T04:03:55;3.30;;;1.77;;
45970;SDS011;31681;48.982;8.394;2023-04-15T04:06:20;4.23;;;2.50;;
45970;SDS011;31681;48.982;8.394;2023-04-15T04:08:46;3.53;;;2.63;;
45970;SDS011;31681;48.982;8.394;2023-04-15T04:11:11;4.67;;;2.40;;
45970;SDS011;31681;48.982;8.394;2023-04-15T04:13:37;4.47;;;2.60;;
45970;SDS011;31681;48.982;8.394;2023-04-15T04:16:02;7.30;;;2.40;;
45970;SDS011;31681;48.982;8.394;2023-04-15T04:18:31;4.60;;;2.13;;
45970;SDS011;31681;48.982;8.394;2023-04-15T04:20:57;5.00;;;2.47;;
45970;SDS011;31681;48.982;8.394;2023-04-15T04:23:22;6.37;;;2.23;;
45970;SDS011;31681;48.982;8.394;2023-04-15T04:25:47;6.53;;;2.60;;
45970;SDS011;31681;48.982;8.394;2023-04-15T04:28:13;6.60;;;2.73;;
45970;SDS011;31681;48.982;8.394;2023-04-15T04:30:38;3.83;;;2.63;;
45970;SDS011;31681;48.982;8.394;2023-04-15T04:33:04;4.63;;;2.50;;
45970;SDS011;31681;48.982;8.394;2023-04-15T04:35:29;4.53;;;2.63;;
45970;SDS011;31681;48.982;8.394;2023-04-15T04:37:54;4.43;;;2.17;;
45970;SDS011;31681;48.982;8.394;2023-04-15T04:40:20;3.10;;;2.47;;
45970;SDS011;31681;48.982;8.394;2023-04-15T04:42:46;4.63;;;2.40;;
45970;SDS011;31681;48.982;8.394;2023-04-15T04:45:11;4.10;;;2.23;;
45970;SDS011;31681;48.982;8.394;2023-04-15T04:47:37;6.00;;;2.67;;
45970;SDS011;31681;48.982;8.394;2023-04-15T04:50:08;3.40;;;2.10;;
45970;SDS011;31681;48.982;8.394;2023-04-15T04:52:34;4.43;;;3.33;;
45970;SDS011;31681;48.982;8.394;2023-04-15T04:55:00;5.27;;;2.33;;
45970;SDS011;31681;48.982;8.394;2023-04-15T04:57:25;4.13;;;2.30;;
45970;SDS011;31681;48.982;8.394;2023-04-15T04:59:50;5.57;;;2.60;;
45970;SDS011;31681;48.982;8.394;2023-04-15T05:02:16;3.53;;;2.23;;
45970;SDS011;31681;48.982;8.394;2023-04-15T05:04:41;4.97;;;2.13;;
45970;SDS011;31681;48.982;8.394;2023-04-15T05:07:09;6.07;;;2.50;;
45970;SDS011;31681;48.982;8.394;2023-04-15T05:09:37;6.53;;;2.40;;
45970;SDS011;31681;48.982;8.394;2023-04-15T05:12:03;6.37;;;2.40;;
45970;SDS011;31681;48.982;8.394;2023-04-15T05:14:38;3.00;;;1.90;;
45970;SDS011;31681;48.982;8.394;2023-04-15T05:17:03;3.30;;;2.50;;
45970;SDS011;31681;48.982;8.394;2023-04-15T05:19:29;4.90;;;2.93;;
45970;SDS011;31681;48.982;8.394;2023-04-15T05:21:55;4.97;;;2.87;;
45970;SDS011;31681;48.982;8.394;2023-04-15T05:24:23;6.27;;;3.20;;
45970;SDS011;31681;48.982;8.394;2023-04-15T05:26:48;11.27;;;4.53;;
45970;SDS011;31681;48.982;8.394;2023-04-15T05:29:14;9.13;;;3.37;;
45970;SDS011;31681;48.982;8.394;2023-04-15T05:31:39;5.60;;;3.13;;
45970;SDS011;31681;48.982;8.394;2023-04-15T05:34:05;10.07;;;3.20;;
45970;SDS011;31681;48.982;8.394;2023-04-15T05:36:33;10.27;;;4.13;;
45970;SDS011;31681;48.982;8.394;2023-04-15T05:38:58;5.43;;;3.17;;
45970;SDS011;31681;48.982;8.394;2023-04-15T05:41:27;8.47;;;3.20;;
45970;SDS011;31681;48.982;8.394;2023-04-15T05:43:53;9.83;;;3.60;;
45970;SDS011;31681;48.982;8.394;2023-04-15T05:46:18;6.33;;;3.70;;
45970;SDS011;31681;48.982;8.394;2023-04-15T05:48:43;6.93;;;4.20;;
45970;SDS011;31681;48.982;8.394;2023-04-15T05:51:09;8.30;;;4.40;;
45970;SDS011;31681;48.982;8.394;2023-04-15T05:53:34;8.63;;;4.17;;
45970;SDS011;31681;48.982;8.394;2023-04-15T05:56:00;6.17;;;3.83;;
45970;SDS011;31681;48.982;8.394;2023-04-15T05:58:25;6.23;;;3.87;;
45970;SDS011;31681;48.982;8.394;2023-04-15T06:00:51;5.80;;;3.07;;
45970;SDS011;31681;48.982;8.394;2023-04-15T06:03:16;4.87;;;3.03;;
45970;SDS011;31681;48.982;8.394;2023-04-15T06:05:42;7.80;;;3.77;;
45970;SDS011;31681;48.982;8.394;2023-04-15T06:08:09;5.57;;;3.03;;
45970;SDS011;31681;48.982;8.394;2023-04-15T06:10:34;5.47;;;3.20;;
45970;SDS011;31681;48.982;8.394;2023-04-15T06:13:01;6.80;;;3.40;;
45970;SDS011;31681;48.982;8.394;2023-04-15T06:15:27;6.57;;;3.60;;
45970;SDS011;31681;48.982;8.394;2023-04-15T06:17:52;5.57;;;3.30;;
45970;SDS011;31681;48.982;8.394;2023-04-15T06:20:17;7.10;;;3.20;;
45970;SDS011;31681;48.982;8.394;2023-04-15T06:22:43;6.97;;;3.80;;
45970;SDS011;31681;48.982;8.394;2023-04-15T06:25:08;7.07;;;3.90;;
45970;SDS011;31681;48.982;8.394;2023-04-15T06:27:34;4.43;;;3.53;;
45970;SDS011;31681;48.982;8.394;2023-04-15T06:30:00;6.50;;;3.33;;
45970;SDS011;31681;48.982;8.394;2023-04-15T06:32:25;7.80;;;3.50;;
45970;SDS011;31681;48.982;8.394;2023-04-15T06:34:51;6.17;;;3.57;;
45970;SDS011;31681;48.982;8.394;2023-04-15T06:37:16;4.87;;;3.50;;
45970;SDS011;31681;48.982;8.394;2023-04-15T06:39:41;5.33;;;3.50;;
45970;SDS011;31681;48.982;8.394;2023-04-15T06:42:07;4.80;;;3.40;;
45970;SDS011;31681;48.982;8.394;2023-04-15T06:44:33;5.70;;;3.70;;
45970;SDS011;31681;48.982;8.394;2023-04-15T06:46:59;6.17;;;3.20;;
45970;SDS011;31681;48.982;8.394;2023-04-15T06:49:24;6.97;;;2.93;;
45970;SDS011;31681;48.982;8.394;2023-04-15T06:51:49;5.93;;;3.27;;
45970;SDS011;31681;48.982;8.394;2023-04-15T06:54:15;4.83;;;3.17;;
45970;SDS011;31681;48.982;8.394;2023-04-15T06:56:41;3.73;;;3.33;;
45970;SDS011;31681;48.982;8.394;2023-04-15T06:59:06;7.17;;;3.57;;
45970;SDS011;31681;48.982;8.394;2023-04-15T07:01:35;4.70;;;3.10;;
45970;SDS011;31681;48.982;8.394;2023-04-15T07:04:00;7.20;;;3.63;;
45970;SDS011;31681;48.982;8.394;2023-04-15T07:06:26;6.23;;;3.13;;
45970;SDS011;31681;48.982;8.394;2023-04-15T07:08:51;5.33;;;3.07;;
45970;SDS011;31681;48.982;8.394;2023-04-15T07:11:19;5.03;;;2.77;;
45970;SDS011;31681;48.982;8.394;2023-04-15T07:13:45;7.60;;;3.30;;
45970;SDS011;31681;48.982;8.394;2023-04-15T07:16:10;6.83;;;3.20;;
45970;SDS011;31681;48.982;8.394;2023-04-15T07:18:36;4.87;;;3.00;;
45970;SDS011;31681;48.982;8.394;2023-04-15T07:21:01;5.10;;;3.20;;
45970;SDS011;31681;48.982;8.394;2023-04-15T07:23:26;5.70;;;3.43;;
45970;SDS011;31681;48.982;8.394;2023-04-15T07:25:52;5.90;;;3.83;;
45970;SDS011;31681;48.982;8.394;2023-04-15T07:28:17;4.93;;;3.60;;
45970;SDS011;31681;48.982;8.394;2023-04-15T07:30:43;6.53;;;3.40;;
45970;SDS011;31681;48.982;8.394;2023-04-15T07:33:08;10.38;;;3.75;;
45970;SDS011;31681;48.982;8.394;2023-04-15T07:35:33;10.90;;;4.38;;
45970;SDS011;31681;48.982;8.394;2023-04-15T07:37:59;6.83;;;3.73;;
45970;SDS011;31681;48.982;8.394;2023-04-15T07:40:24;10.97;;;3.80;;
45970;SDS011;31681;48.982;8.394;2023-04-15T07:42:49;4.83;;;3.53;;
45970;SDS011;31681;48.982;8.394;2023-04-15T07:45:15;6.83;;;3.50;;
45970;SDS011;31681;48.982;8.394;2023-04-15T07:47:41;9.50;;;3.83;;
45970;SDS011;31681;48.982;8.394;2023-04-15T07:50:08;7.22;;;3.65;;
45970;SDS011;31681;48.982;8.394;2023-04-15T07:52:34;3.67;;;2.80;;
45970;SDS011;31681;48.982;8.394;2023-04-15T07:55:06;7.53;;;2.80;;
45970;SDS011;31681;48.982;8.394;2023-04-15T07:57:35;5.37;;;2.83;;
45970;SDS011;31681;48.982;8.394;2023-04-15T08:00:00;8.50;;;2.60;;
45970;SDS011;31681;48.982;8.394;2023-04-15T08:02:38;4.25;;;2.63;;
45970;SDS011;31681;48.982;8.394;2023-04-15T08:05:03;6.57;;;3.17;;
45970;SDS011;31681;48.982;8.394;2023-04-15T08:07:29;4.33;;;2.73;;
45970;SDS011;31681;48.982;8.394;2023-04-15T08:09:54;5.20;;;2.58;;
45970;SDS011;31681;48.982;8.394;2023-04-15T08:12:20;5.93;;;2.60;;
45970;SDS011;31681;48.982;8.394;2023-04-15T08:14:45;4.25;;;2.42;;
45970;SDS011;31681;48.982;8.394;2023-04-15T08:17:11;6.88;;;3.28;;
45970;SDS011;31681;48.982;8.394;2023-04-15T08:19:37;6.75;;;2.90;;
45970;SDS011;31681;48.982;8.394;2023-04-15T08:22:02;3.95;;;2.95;;
45970;SDS011;31681;48.982;8.394;2023-04-15T08:24:27;7.57;;;3.10;;
45970;SDS011;31681;48.982;8.394;2023-04-15T08:26:54;4.47;;;2.95;;
45970;SDS011;31681;48.982;8.394;2023-04-15T08:29:19;4.57;;;2.85;;
45970;SDS011;31681;48.982;8.394;2023-04-15T08:31:48;5.55;;;3.10;;
45970;SDS011;31681;48.982;8.394;2023-04-15T08:34:49;4.82;;;2.90;;
45970;SDS011;31681;48.982;8.394;2023-04-15T08:37:15;4.78;;;2.42;;
45970;SDS011;31681;48.982;8.394;2023-04-15T08:39:48;6.00;;;3.00;;
45970;SDS011;31681;48.982;8.394;2023-04-15T08:42:18;4.88;;;3.22;;
45970;SDS011;31681;48.982;8.394;2023-04-15T08:45:03;7.05;;;4.20;;
45970;SDS011;31681;48.982;8.394;2023-04-15T08:47:29;6.00;;;3.63;;
45970;SDS011;31681;48.982;8.394;2023-04-15T08:49:57;6.68;;;3.05;;
45970;SDS011;31681;48.982;8.394;2023-04-15T08:52:24;5.50;;;3.60;;
45970;SDS011;31681;48.982;8.394;2023-04-15T08:57:33;7.50;;;3.90;;
45970;SDS011;31681;48.982;8.394;2023-04-15T09:00:07;7.78;;;3.30;;
45970;SDS011;31681;48.982;8.394;2023-04-15T09:02:41;8.85;;;3.60;;
45970;SDS011;31681;48.982;8.394;2023-04-15T09:05:17;5.75;;;3.83;;
45970;SDS011;31681;48.982;8.394;2023-04-15T09:07:42;7.68;;;3.65;;
45970;SDS011;31681;48.982;8.394;2023-04-15T09:10:10;7.72;;;3.15;;
45970;SDS011;31681;48.982;8.394;2023-04-15T09:12:42;5.50;;;2.88;;
45970;SDS011;31681;48.982;8.394;2023-04-15T09:15:09;5.57;;;3.08;;
45970;SDS011;31681;48.982;8.394;2023-04-15T09:17:42;11.57;;;3.33;;
45970;SDS011;31681;48.982;8.394;2023-04-15T09:20:28;7.13;;;3.70;;
45970;SDS011;31681;48.982;8.394;2023-04-15T09:22:57;10.73;;;3.05;;
45970;SDS011;31681;48.982;8.394;2023-04-15T09:27:49;8.30;;;3.33;;
45970;SDS011;31681;48.982;8.394;2023-04-15T09:30:14;7.13;;;3.75;;
45970;SDS011;31681;48.982;8.394;2023-04-15T09:32:53;6.82;;;2.85;;
45970;SDS011;31681;48.982;8.394;2023-04-15T09:35:19;5.53;;;2.95;;
45970;SDS011;31681;48.982;8.394;2023-04-15T09:37:49;6.25;;;3.72;;
45970;SDS011;31681;48.982;8.394;2023-04-15T09:40:31;9.82;;;3.50;;
45970;SDS011;31681;48.982;8.394;2023-04-15T09:43:01;7.32;;;3.90;;
45970;SDS011;31681;48.982;8.394;2023-04-15T09:45:27;5.88;;;3.67;;
45970;SDS011;31681;48.982;8.394;2023-04-15T09:47:58;10.63;;;4.72;;
45970;SDS011;31681;48.982;8.394;2023-04-15T09:50:32;9.63;;;4.15;;
45970;SDS011;31681;48.982;8.394;2023-04-15T09:53:08;4.90;;;3.38;;
45970;SDS011;31681;48.982;8.394;2023-04-15T09:55:45;8.13;;;4.45;;
45970;SDS011;31681;48.982;8.394;2023-04-15T09:58:21;9.32;;;4.45;;
45970;SDS011;31681;48.982;8.394;2023-04-15T10:01:07;8.18;;;4.45;;
45970;SDS011;31681;48.982;8.394;2023-04-15T10:03:36;6.00;;;3.97;;
45970;SDS011;31681;48.982;8.394;2023-04-15T10:06:04;7.97;;;4.18;;
45970;SDS011;31681;48.982;8.394;2023-04-15T10:08:35;7.53;;;4.28;;
45970;SDS011;31681;48.982;8.394;2023-04-15T10:11:04;8.98;;;4.20;;
45970;SDS011;31681;48.982;8.394;2023-04-15T10:13:30;7.60;;;4.38;;
45970;SDS011;31681;48.982;8.394;2023-04-15T10:16:05;8.23;;;4.40;;
45970;SDS011;31681;48.982;8.394;2023-04-15T10:18:33;6.18;;;4.25;;
45970;SDS011;31681;48.982;8.394;2023-04-15T10:21:04;9.02;;;4.65;;
45970;SDS011;31681;48.982;8.394;2023-04-15T10:23:30;8.88;;;4.43;;
45970;SDS011;31681;48.982;8.394;2023-04-15T10:25:59;7.38;;;4.57;;
45970;SDS011;31681;48.982;8.394;2023-04-15T10:28:25;10.20;;;4.95;;
45970;SDS011;31681;48.982;8.394;2023-04-15T10:31:00;8.40;;;4.93;;
45970;SDS011;31681;48.982;8.394;2023-04-15T10:33:32;8.23;;;4.78;;
45970;SDS011;31681;48.982;8.394;2023-04-15T10:35:59;6.47;;;4.82;;
45970;SDS011;31681;48.982;8.394;2023-04-15T10:38:44;11.07;;;5.00;;
45970;SDS011;31681;48.982;8.394;2023-04-15T10:41:20;8.73;;;4.82;;
45970;SDS011;31681;48.982;8.394;2023-04-15T10:43:56;6.70;;;4.28;;
45970;SDS011;31681;48.982;8.394;2023-04-15T10:46:38;5.75;;;4.15;;
45970;SDS011;31681;48.982;8.394;2023-04-15T10:51:45;7.70;;;4.10;;
45970;SDS011;31681;48.982;8.394;2023-04-15T10:56:43;7.05;;;5.10;;
45970;SDS011;31681;48.982;8.394;2023-04-15T10:59:09;8.93;;;5.30;;
45970;SDS011;31681;48.982;8.394;2023-04-15T11:01:53;7.97;;;4.72;;
45970;SDS011;31681;48.982;8.394;2023-04-15T11:07:10;9.45;;;5.15;;
45970;SDS011;31681;48.982;8.394;2023-04-15T11:09:50;9.68;;;4.90;;
45970;SDS011;31681;48.982;8.394;2023-04-15T11:12:32;8.48;;;5.53;;
45970;SDS011;31681;48.982;8.394;2023-04-15T11:17:45;8.13;;;5.45;;
45970;SDS011;31681;48.982;8.394;2023-04-15T11:20:13;11.93;;;4.88;;
45970;SDS011;31681;48.982;8.394;2023-04-15T11:22:52;5.70;;;3.88;;
45970;SDS011;31681;48.982;8.394;2023-04-15T11:25:35;9.50;;;4.28;;
45970;SDS011;31681;48.982;8.394;2023-04-15T11:28:06;6.93;;;4.10;;
45970;SDS011;31681;48.982;8.394;2023-04-15T11:30:34;11.80;;;3.90;;
45970;SDS011;31681;48.982;8.394;2023-04-15T11:33:10;7.18;;;3.20;;
45970;SDS011;31681;48.982;8.394;2023-04-15T11:35:39;5.72;;;2.88;;
45970;SDS011;31681;48.982;8.394;2023-04-15T11:38:20;6.22;;;2.28;;
45970;SDS011;31681;48.982;8.394;2023-04-15T11:41:00;6.57;;;2.67;;
45970;SDS011;31681;48.982;8.394;2023-04-15T11:43:28;9.00;;;2.80;;
45970;SDS011;31681;48.982;8.394;2023-04-15T11:46:07;3.28;;;2.40;;
45970;SDS011;31681;48.982;8.394;2023-04-15T11:48:34;6.13;;;2.97;;
45970;SDS011;31681;48.982;8.394;2023-04-15T11:51:06;4.30;;;2.70;;
45970;SDS011;31681;48.982;8.394;2023-04-15T11:53:52;4.43;;;2.80;;
45970;SDS011;31681;48.982;8.394;2023-04-15T11:56:20;8.35;;;3.40;;
45970;SDS011;31681;48.982;8.394;2023-04-15T11:58:55;5.53;;;3.08;;
45970;SDS011;31681;48.982;8.394;2023-04-15T12:01:44;3.80;;;2.60;;
45970;SDS011;31681;48.982;8.394;2023-04-15T12:04:29;4.80;;;2.90;;
45970;SDS011;31681;48.982;8.394;2023-04-15T12:06:54;6.10;;;3.05;;
45970;SDS011;31681;48.982;8.394;2023-04-15T12:09:37;3.95;;;2.85;;
45970;SDS011;31681;48.982;8.394;2023-04-15T12:12:03;5.18;;;2.83;;
45970;SDS011;31681;48.982;8.394;2023-04-15T12:14:30;5.95;;;2.60;;
45970;SDS011;31681;48.982;8.394;2023-04-15T12:16:57;5.20;;;2.45;;
45970;SDS011;31681;48.982;8.394;2023-04-15T12:19:30;3.85;;;2.30;;
45970;SDS011;31681;48.982;8.394;2023-04-15T12:22:23;4.85;;;2.90;;
45970;SDS011;31681;48.982;8.394;2023-04-15T12:24:59;4.93;;;3.30;;
45970;SDS011;31681;48.982;8.394;2023-04-15T12:27:30;5.85;;;2.97;;
45970;SDS011;31681;48.982;8.394;2023-04-15T12:30:05;4.88;;;2.90;;
45970;SDS011;31681;48.982;8.394;2023-04-15T12:32:34;5.93;;;3.55;;
45970;SDS011;31681;48.982;8.394;2023-04-15T12:35:02;6.38;;;3.33;;
45970;SDS011;31681;48.982;8.394;2023-04-15T12:37:28;9.00;;;4.07;;
45970;SDS011;31681;48.982;8.394;2023-04-15T12:39:53;7.65;;;3.35;;
45970;SDS011;31681;48.982;8.394;2023-04-15T12:42:18;7.50;;;4.05;;
45970;SDS011;31681;48.982;8.394;2023-04-15T12:44:44;6.15;;;3.75;;
45970;SDS011;31681;48.982;8.394;2023-04-15T12:47:10;6.38;;;3.55;;
45970;SDS011;31681;48.982;8.394;2023-04-15T12:49:36;6.85;;;3.60;;
45970;SDS011;31681;48.982;8.394;2023-04-15T12:52:02;3.88;;;2.95;;
45970;SDS011;31681;48.982;8.394;2023-04-15T12:54:28;6.13;;;2.83;;
45970;SDS011;31681;48.982;8.394;2023-04-15T12:56:53;7.68;;;2.70;;
45970;SDS011;31681;48.982;8.394;2023-04-15T12:59:19;6.20;;;3.45;;
45970;SDS011;31681;48.982;8.394;2023-04-15T13:01:45;4.15;;;2.58;;
45970;SDS011;31681;48.982;8.394;2023-04-15T13:04:11;6.05;;;3.15;;
45970;SDS011;31681;48.982;8.394;2023-04-15T13:06:36;3.85;;;2.40;;
45970;SDS011;31681;48.982;8.394;2023-04-15T13:09:02;7.13;;;2.90;;
45970;SDS011;31681;48.982;8.394;2023-04-15T13:11:28;8.95;;;2.33;;
45970;SDS011;31681;48.982;8.394;2023-04-15T13:13:55;4.10;;;2.42;;
45970;SDS011;31681;48.982;8.394;2023-04-15T13:16:21;5.15;;;2.75;;
45970;SDS011;31681;48.982;8.394;2023-04-15T13:18:47;3.60;;;2.90;;
45970;SDS011;31681;48.982;8.394;2023-04-15T13:21:13;3.72;;;2.50;;
45970;SDS011;31681;48.982;8.394;2023-04-15T13:23:39;6.95;;;2.92;;
45970;SDS011;31681;48.982;8.394;2023-04-15T13:26:05;5.10;;;2.60;;
45970;SDS011;31681;48.982;8.394;2023-04-15T13:28:30;5.45;;;3.20;;
45970;SDS011;31681;48.982;8.394;2023-04-15T13:30:55;3.25;;;2.70;;
45970;SDS011;31681;48.982;8.394;2023-04-15T13:33:21;4.97;;;2.85;;
45970;SDS011;31681;48.982;8.394;2023-04-15T13:35:46;6.07;;;3.08;;
45970;SDS011;31681;48.982;8.394;2023-04-15T13:38:11;4.93;;;2.55;;
45970;SDS011;31681;48.982;8.394;2023-04-15T13:40:37;4.47;;;2.85;;
45970;SDS011;31681;48.982;8.394;2023-04-15T13:43:02;4.38;;;3.30;;
45970;SDS011;31681;48.982;8.394;2023-04-15T13:45:28;7.22;;;3.13;;
45970;SDS011;31681;48.982;8.394;2023-04-15T13:47:54;4.57;;;3.35;;
45970;SDS011;31681;48.982;8.394;2023-04-15T13:50:19;4.13;;;3.10;;
45970;SDS011;31681;48.982;8.394;2023-04-15T13:52:45;6.88;;;3.30;;
45970;SDS011;31681;48.982;8.394;2023-04-15T13:55:10;5.10;;;3.20;;
45970;SDS011;31681;48.982;8.394;2023-04-15T13:57:35;8.05;;;3.25;;
45970;SDS011;31681;48.982;8.394;2023-04-15T14:00:01;5.57;;;2.72;;
45970;SDS011;31681;48.982;8.394;2023-04-15T14:02:31;4.55;;;3.15;;
45970;SDS011;31681;48.982;8.394;2023-04-15T14:04:57;6.35;;;3.28;;
45970;SDS011;31681;48.982;8.394;2023-04-15T14:07:22;4.03;;;2.95;;
45970;SDS011;31681;48.982;8.394;2023-04-15T14:09:47;5.55;;;2.92;;
45970;SDS011;31681;48.982;8.394;2023-04-15T14:12:13;5.28;;;3.00;;
45970;SDS011;31681;48.982;8.394;2023-04-15T14:14:39;7.13;;;3.35;;
45970;SDS011;31681;48.982;8.394;2023-04-15T14:17:05;5.40;;;2.78;;
45970;SDS011;31681;48.982;8.394;2023-04-15T14:19:33;5.38;;;3.13;;
45970;SDS011;31681;48.982;8.394;2023-04-15T14:21:59;4.13;;;2.63;;
45970;SDS011;31681;48.982;8.394;2023-04-15T14:24:24;5.13;;;2.65;;
45970;SDS011;31681;48.982;8.394;2023-04-15T14:26:50;7.85;;;3.00;;
45970;SDS011;31681;48.982;8.394;2023-04-15T14:29:15;6.72;;;2.70;;
45970;SDS011;31681;48.982;8.394;2023-04-15T14:31:41;5.75;;;3.15;;
45970;SDS011;31681;48.982;8.394;2023-04-15T14:34:08;5.65;;;3.10;;
45970;SDS011;31681;48.982;8.394;2023-04-15T14:36:33;4.97;;;2.05;;
45970;SDS011;31681;48.982;8.394;2023-04-15T14:38:59;6.90;;;2.42;;
45970;SDS011;31681;48.982;8.394;2023-04-15T14:41:24;4.85;;;2.38;;
45970;SDS011;31681;48.982;8.394;2023-04-15T14:43:50;3.53;;;2.35;;
45970;SDS011;31681;48.982;8.394;2023-04-15T14:46:15;3.38;;;2.35;;
45970;SDS011;31681;48.982;8.394;2023-04-15T14:48:44;4.72;;;1.85;;
45970;SDS011;31681;48.982;8.394;2023-04-15T14:51:09;3.03;;;1.65;;
45970;SDS011;31681;48.982;8.394;2023-04-15T14:53:34;4.00;;;1.80;;
45970;SDS011;31681;48.982;8.394;2023-04-15T14:56:00;1.95;;;1.50;;
45970;SDS011;31681;48.982;8.394;2023-04-15T14:58:25;6.00;;;2.00;;
45970;SDS011;31681;48.982;8.394;2023-04-15T15:00:50;3.75;;;1.73;;
45970;SDS011;31681;48.982;8.394;2023-04-15T15:03:16;2.38;;;1.55;;
45970;SDS011;31681;48.982;8.394;2023-04-15T15:05:42;5.90;;;1.70;;